sensor_id;sensor_type;location;lat;lon;timestamp;pressure;altitude;pressure_sealevel;temperature;humidity
33404;BME280;19751;40.274;18.268;2023-03-16T00:01:05;100146.59;;;10.60;100.00
33404;BME280;19751;40.274;18.268;2023-03-16T00:03:31;100142.03;;;10.61;100.00
33404;BME280;19751;40.274;18.268;2023-03-16T00:05:57;100147.44;;;10.61;100.00
33404;BME280;19751;40.274;18.268;2023-03-16T00:08:22;100144.72;;;10.61;100.00
33404;BME280;19751;40.274;18.268;2023-03-16T00:10:48;100158.00;;;10.62;100.00
33404;BME280;19751;40.274;18.268;2023-03-16T00:13:18;100161.53;;;10.63;100.00
33404;BME280;19751;40.274;18.268;2023-03-16T00:15:58;100158.66;;;10.71;100.00
33404;BME280;19751;40.274;18.268;2023-03-16T00:18:26;100159.88;;;10.68;100.00
33404;BME280;19751;40.274;18.268;2023-03-16T00:20:53;100162.78;;;10.67;100.00
33404;BME280;19751;40.274;18.268;2023-03-16T00:23:20;100162.97;;;10.65;100.00
33404;BME280;19751;40.274;18.268;2023-03-16T00:25:52;100158.00;;;10.62;100.00
33404;BME280;19751;40.274;18.268;2023-03-16T00:28:18;100154.50;;;10.62;100.00
33404;BME280;19751;40.274;18.268;2023-03-16T00:30:43;100164.84;;;10.65;100.00
33404;BME280;19751;40.274;18.268;2023-03-16T00:33:11;100167.34;;;10.66;100.00
33404;BME280;19751;40.274;18.268;2023-03-16T00:35:37;100176.69;;;10.70;100.00
33404;BME280;19751;40.274;18.268;2023-03-16T00:38:03;100181.63;;;10.74;100.00
33404;BME280;19751;40.274;18.268;2023-03-16T00:40:28;100170.47;;;10.77;100.00
33404;BME280;19751;40.274;18.268;2023-03-16T00:42:55;100175.03;;;10.76;100.00
33404;BME280;19751;40.274;18.268;2023-03-16T00:45:22;100177.72;;;10.76;100.00
33404;BME280;19751;40.274;18.268;2023-03-16T00:47:50;100190.13;;;10.77;100.00
33404;BME280;19751;40.274;18.268;2023-03-16T00:50:19;100189.31;;;10.77;100.00
33404;BME280;19751;40.274;18.268;2023-03-16T00:52:46;100194.31;;;10.80;100.00
33404;BME280;19751;40.274;18.268;2023-03-16T00:55:12;100192.22;;;10.82;100.00
33404;BME280;19751;40.274;18.268;2023-03-16T00:57:38;100197.22;;;10.85;99.03
33404;BME280;19751;40.274;18.268;2023-03-16T01:00:03;100195.16;;;10.87;97.88
33404;BME280;19751;40.274;18.268;2023-03-16T01:02:37;100196.81;;;10.88;96.63
33404;BME280;19751;40.274;18.268;2023-03-16T01:05:03;100199.50;;;10.88;96.32
33404;BME280;19751;40.274;18.268;2023-03-16T01:07:30;100199.50;;;10.88;96.24
33404;BME280;19751;40.274;18.268;2023-03-16T01:09:55;100203.03;;;10.88;94.41
33404;BME280;19751;40.274;18.268;2023-03-16T01:12:23;100195.38;;;10.92;94.55
33404;BME280;19751;40.274;18.268;2023-03-16T01:14:48;100206.75;;;10.94;94.37
33404;BME280;19751;40.274;18.268;2023-03-16T01:17:16;100207.41;;;10.96;92.09
33404;BME280;19751;40.274;18.268;2023-03-16T01:19:45;100202.44;;;11.00;90.85
33404;BME280;19751;40.274;18.268;2023-03-16T01:22:11;100204.28;;;10.99;89.27
33404;BME280;19751;40.274;18.268;2023-03-16T01:24:37;100213.00;;;11.01;89.41
33404;BME280;19751;40.274;18.268;2023-03-16T01:27:04;100197.66;;;11.02;88.28
33404;BME280;19751;40.274;18.268;2023-03-16T01:29:30;100217.97;;;11.04;88.94
33404;BME280;19751;40.274;18.268;2023-03-16T01:31:55;100193.72;;;11.04;88.49
33404;BME280;19751;40.274;18.268;2023-03-16T01:34:21;100202.84;;;11.03;88.80
33404;BME280;19751;40.274;18.268;2023-03-16T01:36:48;100207.59;;;11.01;89.34
33404;BME280;19751;40.274;18.268;2023-03-16T01:39:14;100216.94;;;11.05;89.54
33404;BME280;19751;40.274;18.268;2023-03-16T01:41:41;100217.16;;;11.04;89.58
33404;BME280;19751;40.274;18.268;2023-03-16T01:47:35;100210.31;;;11.08;88.84
33404;BME280;19751;40.274;18.268;2023-03-16T01:50:03;100211.75;;;11.10;87.11
33404;BME280;19751;40.274;18.268;2023-03-16T01:52:34;100222.34;;;11.12;86.10
33404;BME280;19751;40.274;18.268;2023-03-16T01:55:06;100214.66;;;11.15;84.79
33404;BME280;19751;40.274;18.268;2023-03-16T01:57:39;100212.59;;;11.17;84.21
33404;BME280;19751;40.274;18.268;2023-03-16T02:00:11;100214.25;;;11.18;84.13
33404;BME280;19751;40.274;18.268;2023-03-16T02:02:54;100218.00;;;11.17;85.36
33404;BME280;19751;40.274;18.268;2023-03-16T02:05:30;100219.84;;;11.17;84.56
33404;BME280;19751;40.274;18.268;2023-03-16T02:07:58;100214.47;;;11.17;83.82
33404;BME280;19751;40.274;18.268;2023-03-16T02:10:27;100227.94;;;11.17;83.56
33404;BME280;19751;40.274;18.268;2023-03-16T02:12:54;100226.47;;;11.14;83.32
33404;BME280;19751;40.274;18.268;2023-03-16T02:15:20;100226.69;;;11.13;82.79
33404;BME280;19751;40.274;18.268;2023-03-16T02:17:46;100234.78;;;11.13;83.10
33404;BME280;19751;40.274;18.268;2023-03-16T02:22:45;100236.44;;;11.14;83.93
33404;BME280;19751;40.274;18.268;2023-03-16T02:25:13;100221.72;;;11.10;84.77
33404;BME280;19751;40.274;18.268;2023-03-16T02:27:59;100254.66;;;11.05;85.40
33404;BME280;19751;40.274;18.268;2023-03-16T02:30:30;100242.00;;;11.06;85.64
33404;BME280;19751;40.274;18.268;2023-03-16T02:32:56;100246.38;;;11.07;86.02
33404;BME280;19751;40.274;18.268;2023-03-16T02:35:22;100266.50;;;11.04;86.87
33404;BME280;19751;40.274;18.268;2023-03-16T02:37:47;100241.59;;;11.02;87.83
33404;BME280;19751;40.274;18.268;2023-03-16T02:42:42;100243.69;;;11.00;89.34
33404;BME280;19751;40.274;18.268;2023-03-16T02:45:08;100246.16;;;11.02;89.22
33404;BME280;19751;40.274;18.268;2023-03-16T02:47:40;100251.38;;;11.03;89.97
33404;BME280;19751;40.274;18.268;2023-03-16T02:50:08;100257.75;;;11.02;88.67
33404;BME280;19751;40.274;18.268;2023-03-16T02:52:35;100261.28;;;11.03;89.17
33404;BME280;19751;40.274;18.268;2023-03-16T02:55:02;100262.97;;;11.04;90.32
33404;BME280;19751;40.274;18.268;2023-03-16T02:57:28;100274.34;;;11.06;90.80
33404;BME280;19751;40.274;18.268;2023-03-16T02:59:53;100259.84;;;11.07;90.88
33404;BME280;19751;40.274;18.268;2023-03-16T03:02:19;100265.44;;;11.05;91.56
33404;BME280;19751;40.274;18.268;2023-03-16T03:04:44;100264.41;;;11.06;92.48
33404;BME280;19751;40.274;18.268;2023-03-16T03:07:14;100266.91;;;11.08;93.14
33404;BME280;19751;40.274;18.268;2023-03-16T03:09:41;100282.88;;;11.09;93.39
33404;BME280;19751;40.274;18.268;2023-03-16T03:12:08;100278.94;;;11.12;93.63
33404;BME280;19751;40.274;18.268;2023-03-16T03:14:34;100287.44;;;11.15;93.62
33404;BME280;19751;40.274;18.268;2023-03-16T03:17:06;100281.84;;;11.17;92.58
33404;BME280;19751;40.274;18.268;2023-03-16T03:19:35;100281.84;;;11.17;92.56
33404;BME280;19751;40.274;18.268;2023-03-16T03:22:03;100285.59;;;11.16;91.70
33404;BME280;19751;40.274;18.268;2023-03-16T03:24:31;100290.13;;;11.15;92.14
33404;BME280;19751;40.274;18.268;2023-03-16T03:26:57;100288.28;;;11.16;92.21
33404;BME280;19751;40.274;18.268;2023-03-16T03:29:26;100288.91;;;11.18;92.28
33404;BME280;19751;40.274;18.268;2023-03-16T03:32:00;100292.63;;;11.17;92.66
33404;BME280;19751;40.274;18.268;2023-03-16T03:34:27;100293.47;;;11.17;93.02
33404;BME280;19751;40.274;18.268;2023-03-16T03:36:52;100299.69;;;11.18;93.27
33404;BME280;19751;40.274;18.268;2023-03-16T03:39:18;100314.81;;;11.19;93.59
33404;BME280;19751;40.274;18.268;2023-03-16T03:41:43;100305.72;;;11.20;94.32
33404;BME280;19751;40.274;18.268;2023-03-16T03:44:09;100320.84;;;11.21;94.71
33404;BME280;19751;40.274;18.268;2023-03-16T03:46:35;100318.97;;;11.22;95.16
33404;BME280;19751;40.274;18.268;2023-03-16T03:49:00;100314.19;;;11.24;95.32
33404;BME280;19751;40.274;18.268;2023-03-16T03:51:32;100325.84;;;11.24;95.63
33404;BME280;19751;40.274;18.268;2023-03-16T03:53:58;100331.22;;;11.24;95.64
33404;BME280;19751;40.274;18.268;2023-03-16T03:56:24;100332.88;;;11.25;95.43
33404;BME280;19751;40.274;18.268;2023-03-16T03:58:50;100328.31;;;11.26;95.66
33404;BME280;19751;40.274;18.268;2023-03-16T04:01:16;100342.63;;;11.26;96.01
33404;BME280;19751;40.274;18.268;2023-03-16T04:03:41;100345.31;;;11.26;96.29
33404;BME280;19751;40.274;18.268;2023-03-16T04:06:07;100336.84;;;11.29;96.96
33404;BME280;19751;40.274;18.268;2023-03-16T04:08:33;100332.50;;;11.28;96.76
33404;BME280;19751;40.274;18.268;2023-03-16T04:10:59;100342.22;;;11.29;97.39
33404;BME280;19751;40.274;18.268;2023-03-16T04:13:25;100351.97;;;11.30;98.17
33404;BME280;19751;40.274;18.268;2023-03-16T04:15:57;100349.91;;;11.32;98.69
33404;BME280;19751;40.274;18.268;2023-03-16T04:18:23;100367.75;;;11.33;99.21
33404;BME280;19751;40.274;18.268;2023-03-16T04:20:49;100356.97;;;11.33;99.53
33404;BME280;19751;40.274;18.268;2023-03-16T04:23:18;100360.28;;;11.35;100.00
33404;BME280;19751;40.274;18.268;2023-03-16T04:25:44;100362.97;;;11.35;99.79
33404;BME280;19751;40.274;18.268;2023-03-16T04:28:10;100362.56;;;11.38;100.00
33404;BME280;19751;40.274;18.268;2023-03-16T04:30:36;100369.63;;;11.39;100.00
33404;BME280;19751;40.274;18.268;2023-03-16T04:33:01;100374.00;;;11.40;100.00
33404;BME280;19751;40.274;18.268;2023-03-16T04:35:27;100386.44;;;11.41;100.00
33404;BME280;19751;40.274;18.268;2023-03-16T04:37:53;100392.88;;;11.40;100.00
33404;BME280;19751;40.274;18.268;2023-03-16T04:40:18;100393.91;;;11.39;100.00
33404;BME280;19751;40.274;18.268;2023-03-16T04:42:45;100393.91;;;11.39;98.47
33404;BME280;19751;40.274;18.268;2023-03-16T04:45:12;100395.97;;;11.37;96.19
33404;BME280;19751;40.274;18.268;2023-03-16T04:47:38;100396.81;;;11.38;95.10
33404;BME280;19751;40.274;18.268;2023-03-16T04:50:04;100406.75;;;11.37;93.42
33404;BME280;19751;40.274;18.268;2023-03-16T04:52:30;100402.19;;;11.38;90.39
33404;BME280;19751;40.274;18.268;2023-03-16T04:54:56;100399.72;;;11.36;82.78
33404;BME280;19751;40.274;18.268;2023-03-16T04:57:22;100395.97;;;11.37;81.48
33404;BME280;19751;40.274;18.268;2023-03-16T04:59:47;100394.94;;;11.38;79.45
33404;BME280;19751;40.274;18.268;2023-03-16T05:02:13;100397.03;;;11.36;75.87
33404;BME280;19751;40.274;18.268;2023-03-16T05:04:39;100382.28;;;11.32;74.21
33404;BME280;19751;40.274;18.268;2023-03-16T05:07:04;100392.19;;;11.32;73.86
33404;BME280;19751;40.274;18.268;2023-03-16T05:09:30;100389.31;;;11.33;73.50
33404;BME280;19751;40.274;18.268;2023-03-16T05:11:55;100398.25;;;11.34;73.46
33404;BME280;19751;40.274;18.268;2023-03-16T05:14:21;100404.69;;;11.33;72.83
33404;BME280;19751;40.274;18.268;2023-03-16T05:16:46;100396.59;;;11.33;73.77
33404;BME280;19751;40.274;18.268;2023-03-16T05:19:12;100416.91;;;11.35;75.83
33404;BME280;19751;40.274;18.268;2023-03-16T05:21:37;100417.56;;;11.37;77.73
33404;BME280;19751;40.274;18.268;2023-03-16T05:24:07;100428.94;;;11.39;79.33
33404;BME280;19751;40.274;18.268;2023-03-16T05:26:33;100425.84;;;11.42;80.72
33404;BME280;19751;40.274;18.268;2023-03-16T05:28:59;100428.34;;;11.44;81.73
33404;BME280;19751;40.274;18.268;2023-03-16T05:31:25;100438.28;;;11.43;82.46
33404;BME280;19751;40.274;18.268;2023-03-16T05:33:52;100434.38;;;11.46;82.00
33404;BME280;19751;40.274;18.268;2023-03-16T05:36:18;100446.00;;;11.47;81.76
33404;BME280;19751;40.274;18.268;2023-03-16T05:38:44;100443.28;;;11.47;81.43
33404;BME280;19751;40.274;18.268;2023-03-16T05:41:10;100442.91;;;11.50;81.25
33404;BME280;19751;40.274;18.268;2023-03-16T05:43:36;100448.91;;;11.52;80.24
33404;BME280;19751;40.274;18.268;2023-03-16T05:46:02;100454.72;;;11.55;79.04
33404;BME280;19751;40.274;18.268;2023-03-16T05:48:28;100458.06;;;11.57;78.00
33404;BME280;19751;40.274;18.268;2023-03-16T05:50:54;100460.56;;;11.59;77.62
33404;BME280;19751;40.274;18.268;2023-03-16T05:53:19;100470.94;;;11.62;77.28
33404;BME280;19751;40.274;18.268;2023-03-16T05:55:51;100479.66;;;11.64;77.43
33404;BME280;19751;40.274;18.268;2023-03-16T05:58:16;100471.16;;;11.67;77.50
33404;BME280;19751;40.274;18.268;2023-03-16T06:00:42;100479.88;;;11.69;75.70
33404;BME280;19751;40.274;18.268;2023-03-16T06:03:07;100477.00;;;11.70;73.48
33404;BME280;19751;40.274;18.268;2023-03-16T06:05:33;100491.94;;;11.73;69.82
33404;BME280;19751;40.274;18.268;2023-03-16T06:07:58;100489.03;;;11.75;68.35
33404;BME280;19751;40.274;18.268;2023-03-16T06:10:24;100495.69;;;11.79;68.16
33404;BME280;19751;40.274;18.268;2023-03-16T06:12:50;100500.66;;;11.82;66.79
33404;BME280;19751;40.274;18.268;2023-03-16T06:15:16;100514.63;;;11.85;65.72
33404;BME280;19751;40.274;18.268;2023-03-16T06:17:41;100513.38;;;11.88;64.30
33404;BME280;19751;40.274;18.268;2023-03-16T06:20:08;100525.66;;;11.90;63.79
33404;BME280;19751;40.274;18.268;2023-03-16T06:22:36;100519.84;;;11.93;63.93
33404;BME280;19751;40.274;18.268;2023-03-16T06:25:03;100522.34;;;11.95;63.72
33404;BME280;19751;40.274;18.268;2023-03-16T06:27:28;100530.88;;;11.99;63.86
33404;BME280;19751;40.274;18.268;2023-03-16T06:29:54;100529.00;;;11.99;63.03
33404;BME280;19751;40.274;18.268;2023-03-16T06:32:20;100535.22;;;12.00;62.09
33404;BME280;19751;40.274;18.268;2023-03-16T06:34:46;100536.66;;;12.02;62.67
33404;BME280;19751;40.274;18.268;2023-03-16T06:37:12;100540.63;;;12.06;61.87
33404;BME280;19751;40.274;18.268;2023-03-16T06:39:39;100531.53;;;12.07;61.45
33404;BME280;19751;40.274;18.268;2023-03-16T06:42:05;100547.50;;;12.09;58.73
33404;BME280;19751;40.274;18.268;2023-03-16T06:44:30;100550.81;;;12.11;56.83
33404;BME280;19751;40.274;18.268;2023-03-16T06:46:56;100551.44;;;12.13;56.98
33404;BME280;19751;40.274;18.268;2023-03-16T06:49:22;100557.91;;;12.18;57.24
33404;BME280;19751;40.274;18.268;2023-03-16T06:51:48;100554.38;;;12.18;55.76
33404;BME280;19751;40.274;18.268;2023-03-16T06:54:13;100559.75;;;12.18;55.53
33404;BME280;19751;40.274;18.268;2023-03-16T06:56:39;100557.69;;;12.13;55.64
33404;BME280;19751;40.274;18.268;2023-03-16T06:59:05;100564.97;;;12.13;57.07
33404;BME280;19751;40.274;18.268;2023-03-16T07:01:30;100568.28;;;12.15;57.79
33404;BME280;19751;40.274;18.268;2023-03-16T07:03:56;100567.44;;;12.14;58.21
33404;BME280;19751;40.274;18.268;2023-03-16T07:06:21;100585.72;;;12.12;58.18
33404;BME280;19751;40.274;18.268;2023-03-16T07:08:47;100568.09;;;12.16;58.27
33404;BME280;19751;40.274;18.268;2023-03-16T07:11:13;100570.16;;;12.21;58.83
33404;BME280;19751;40.274;18.268;2023-03-16T07:13:39;100574.75;;;12.27;59.32
33404;BME280;19751;40.274;18.268;2023-03-16T07:16:05;100587.00;;;12.30;58.58
33404;BME280;19751;40.274;18.268;2023-03-16T07:18:31;100584.75;;;12.33;58.52
33404;BME280;19751;40.274;18.268;2023-03-16T07:20:57;100586.00;;;12.37;58.12
33404;BME280;19751;40.274;18.268;2023-03-16T07:23:23;100596.41;;;12.40;56.34
33404;BME280;19751;40.274;18.268;2023-03-16T07:25:50;100583.72;;;12.41;55.94
33404;BME280;19751;40.274;18.268;2023-03-16T07:28:17;100585.38;;;12.42;56.12
33404;BME280;19751;40.274;18.268;2023-03-16T07:30:44;100586.19;;;12.42;55.44
33404;BME280;19751;40.274;18.268;2023-03-16T07:33:10;100597.22;;;12.41;55.27
33404;BME280;19751;40.274;18.268;2023-03-16T07:35:36;100609.69;;;12.42;55.58
33404;BME280;19751;40.274;18.268;2023-03-16T07:38:02;100605.75;;;12.44;56.29
33404;BME280;19751;40.274;18.268;2023-03-16T07:40:27;100616.13;;;12.48;57.41
33404;BME280;19751;40.274;18.268;2023-03-16T07:42:53;100605.97;;;12.50;56.36
33404;BME280;19751;40.274;18.268;2023-03-16T07:45:19;100609.06;;;12.47;55.24
33404;BME280;19751;40.274;18.268;2023-03-16T07:47:45;100623.63;;;12.46;54.91
33404;BME280;19751;40.274;18.268;2023-03-16T07:50:11;100623.22;;;12.49;54.84
33404;BME280;19751;40.274;18.268;2023-03-16T07:52:39;100627.19;;;12.53;54.46
33404;BME280;19751;40.274;18.268;2023-03-16T07:55:05;100624.03;;;12.56;53.60
33404;BME280;19751;40.274;18.268;2023-03-16T07:57:31;100629.69;;;12.61;53.71
33404;BME280;19751;40.274;18.268;2023-03-16T07:59:56;100636.34;;;12.65;52.74
33404;BME280;19751;40.274;18.268;2023-03-16T08:02:23;100644.22;;;12.66;52.91
33404;BME280;19751;40.274;18.268;2023-03-16T08:04:49;100654.22;;;12.66;53.47
33404;BME280;19751;40.274;18.268;2023-03-16T08:07:16;100649.22;;;12.63;54.76
33404;BME280;19751;40.274;18.268;2023-03-16T08:09:42;100656.69;;;12.54;55.35
33404;BME280;19751;40.274;18.268;2023-03-16T08:12:08;100648.75;;;12.46;55.18
33404;BME280;19751;40.274;18.268;2023-03-16T08:14:34;100652.91;;;12.42;55.36
33404;BME280;19751;40.274;18.268;2023-03-16T08:17:03;100652.91;;;12.42;55.00
33404;BME280;19751;40.274;18.268;2023-03-16T08:19:30;100656.44;;;12.42;54.88
33404;BME280;19751;40.274;18.268;2023-03-16T08:21:56;100656.47;;;12.49;54.78
33404;BME280;19751;40.274;18.268;2023-03-16T08:24:25;100687.00;;;12.56;54.75
33404;BME280;19751;40.274;18.268;2023-03-16T08:26:51;100664.16;;;12.59;53.17
33404;BME280;19751;40.274;18.268;2023-03-16T08:29:17;100683.50;;;12.62;53.65
33404;BME280;19751;40.274;18.268;2023-03-16T08:31:43;100664.59;;;12.62;52.40
33404;BME280;19751;40.274;18.268;2023-03-16T08:34:09;100664.59;;;12.62;53.03
33404;BME280;19751;40.274;18.268;2023-03-16T08:36:36;100677.47;;;12.60;52.41
33404;BME280;19751;40.274;18.268;2023-03-16T08:39:03;100674.75;;;12.60;52.88
33404;BME280;19751;40.274;18.268;2023-03-16T08:41:31;100688.50;;;12.65;54.63
33404;BME280;19751;40.274;18.268;2023-03-16T08:43:57;100695.19;;;12.69;54.82
33404;BME280;19751;40.274;18.268;2023-03-16T08:46:23;100690.19;;;12.73;54.90
33404;BME280;19751;40.274;18.268;2023-03-16T08:48:49;100678.78;;;12.78;55.05
33404;BME280;19751;40.274;18.268;2023-03-16T08:51:15;100687.91;;;12.77;53.47
33404;BME280;19751;40.274;18.268;2023-03-16T08:53:41;100688.50;;;12.72;52.84
33404;BME280;19751;40.274;18.268;2023-03-16T08:56:11;100692.66;;;12.68;52.50
33404;BME280;19751;40.274;18.268;2023-03-16T08:58:39;100696.19;;;12.68;51.96
33404;BME280;19751;40.274;18.268;2023-03-16T09:01:06;100690.19;;;12.66;52.29
33404;BME280;19751;40.274;18.268;2023-03-16T09:03:33;100698.50;;;12.72;52.92
33404;BME280;19751;40.274;18.268;2023-03-16T09:06:04;100709.50;;;12.77;52.72
33404;BME280;19751;40.274;18.268;2023-03-16T09:08:30;100699.34;;;12.79;52.51
33404;BME280;19751;40.274;18.268;2023-03-16T09:11:00;100709.53;;;12.83;51.53
33404;BME280;19751;40.274;18.268;2023-03-16T09:13:27;100708.09;;;12.87;51.64
33404;BME280;19751;40.274;18.268;2023-03-16T09:15:53;100699.38;;;12.92;52.11
33404;BME280;19751;40.274;18.268;2023-03-16T09:18:19;100694.59;;;12.94;52.13
33404;BME280;19751;40.274;18.268;2023-03-16T09:20:45;100714.97;;;12.90;51.78
33404;BME280;19751;40.274;18.268;2023-03-16T09:23:12;100714.13;;;12.89;52.44
33404;BME280;19751;40.274;18.268;2023-03-16T09:25:38;100715.16;;;12.88;53.35
33404;BME280;19751;40.274;18.268;2023-03-16T09:28:04;100738.88;;;12.86;53.57
33404;BME280;19751;40.274;18.268;2023-03-16T09:30:30;100716.19;;;12.81;53.51
33404;BME280;19751;40.274;18.268;2023-03-16T09:32:55;100713.28;;;12.82;55.60
33404;BME280;19751;40.274;18.268;2023-03-16T09:35:21;100710.16;;;12.85;56.62
33404;BME280;19751;40.274;18.268;2023-03-16T09:37:47;100729.09;;;12.92;55.88
33404;BME280;19751;40.274;18.268;2023-03-16T09:40:23;100709.13;;;12.86;53.89
33404;BME280;19751;40.274;18.268;2023-03-16T09:45:45;100726.16;;;12.80;52.25
33404;BME280;19751;40.274;18.268;2023-03-16T09:48:14;100712.88;;;12.79;51.56
33404;BME280;19751;40.274;18.268;2023-03-16T09:50:41;100727.63;;;12.83;52.87
33404;BME280;19751;40.274;18.268;2023-03-16T09:55:56;100773.78;;;12.81;55.26
33404;BME280;19751;40.274;18.268;2023-03-16T09:58:23;100754.63;;;12.76;56.39
33404;BME280;19751;40.274;18.268;2023-03-16T10:06:13;100741.56;;;12.73;56.35
33404;BME280;19751;40.274;18.268;2023-03-16T10:08:44;100736.97;;;12.80;56.54
33404;BME280;19751;40.274;18.268;2023-03-16T10:11:22;100745.91;;;12.81;54.96
33404;BME280;19751;40.274;18.268;2023-03-16T10:16:47;100752.81;;;12.90;55.16
33404;BME280;19751;40.274;18.268;2023-03-16T10:21:52;100750.75;;;12.99;54.31
33404;BME280;19751;40.274;18.268;2023-03-16T10:27:08;100762.41;;;13.06;54.23
33404;BME280;19751;40.274;18.268;2023-03-16T10:29:39;100775.72;;;13.07;52.32
33404;BME280;19751;40.274;18.268;2023-03-16T10:32:16;100782.59;;;13.10;51.72
33404;BME280;19751;40.274;18.268;2023-03-16T10:35:17;100773.84;;;13.08;50.77
33404;BME280;19751;40.274;18.268;2023-03-16T10:37:46;100792.56;;;13.09;50.94
33404;BME280;19751;40.274;18.268;2023-03-16T10:40:13;100783.22;;;13.12;50.51
33404;BME280;19751;40.274;18.268;2023-03-16T10:42:40;100802.56;;;13.09;50.33
33404;BME280;19751;40.274;18.268;2023-03-16T10:45:31;100801.31;;;13.05;49.94
33404;BME280;19751;40.274;18.268;2023-03-16T10:48:25;100791.97;;;13.07;50.52
33404;BME280;19751;40.274;18.268;2023-03-16T10:50:56;100797.38;;;13.14;50.75
33404;BME280;19751;40.274;18.268;2023-03-16T10:53:25;100793.44;;;13.16;50.25
33404;BME280;19751;40.274;18.268;2023-03-16T10:55:57;100793.63;;;13.22;51.15
33404;BME280;19751;40.274;18.268;2023-03-16T10:58:25;100810.31;;;13.25;51.22
33404;BME280;19751;40.274;18.268;2023-03-16T11:00:53;100800.56;;;13.24;51.77
33404;BME280;19751;40.274;18.268;2023-03-16T11:03:30;100806.13;;;13.16;51.86
33404;BME280;19751;40.274;18.268;2023-03-16T11:06:02;100816.72;;;13.11;52.21
33404;BME280;19751;40.274;18.268;2023-03-16T11:08:34;100815.25;;;13.08;51.60
33404;BME280;19751;40.274;18.268;2023-03-16T11:11:10;100809.41;;;13.05;52.96
33404;BME280;19751;40.274;18.268;2023-03-16T11:13:43;100807.97;;;13.09;53.37
33404;BME280;19751;40.274;18.268;2023-03-16T11:18:51;100825.84;;;13.03;52.62
33404;BME280;19751;40.274;18.268;2023-03-16T11:24:01;100839.34;;;12.97;52.80
33404;BME280;19751;40.274;18.268;2023-03-16T11:26:36;100828.72;;;12.95;52.82
33404;BME280;19751;40.274;18.268;2023-03-16T11:32:04;100817.31;;;13.00;51.48
33404;BME280;19751;40.274;18.268;2023-03-16T11:34:31;100833.75;;;12.98;51.37
33404;BME280;19751;40.274;18.268;2023-03-16T11:37:13;100822.28;;;12.96;51.00
33404;BME280;19751;40.274;18.268;2023-03-16T11:40:06;100816.66;;;12.91;50.85
33404;BME280;19751;40.274;18.268;2023-03-16T11:45:41;100809.19;;;13.00;51.70
33404;BME280;19751;40.274;18.268;2023-03-16T11:51:00;100808.56;;;12.98;48.35
33404;BME280;19751;40.274;18.268;2023-03-16T11:56:14;100808.38;;;12.99;45.52
33404;BME280;19751;40.274;18.268;2023-03-16T11:58:52;100820.44;;;13.03;44.91
33404;BME280;19751;40.274;18.268;2023-03-16T12:21:31;100822.78;;;13.19;51.02
33404;BME280;19751;40.274;18.268;2023-03-16T12:24:05;100806.31;;;13.14;50.78
33404;BME280;19751;40.274;18.268;2023-03-16T12:26:39;100809.00;;;13.08;51.05
33404;BME280;19751;40.274;18.268;2023-03-16T12:38:43;100824.41;;;13.14;51.67
33404;BME280;19751;40.274;18.268;2023-03-16T12:44:06;100817.69;;;12.90;50.25
33404;BME280;19751;40.274;18.268;2023-03-16T12:46:58;100815.81;;;12.90;50.99
33404;BME280;19751;40.274;18.268;2023-03-16T12:49:24;100830.19;;;12.98;50.57
33404;BME280;19751;40.274;18.268;2023-03-16T12:52:01;100841.66;;;13.00;49.99
33404;BME280;19751;40.274;18.268;2023-03-16T12:54:28;100828.13;;;13.00;50.19
33404;BME280;19751;40.274;18.268;2023-03-16T12:57:03;100833.75;;;12.98;49.67
33404;BME280;19751;40.274;18.268;2023-03-16T12:59:45;100856.00;;;13.00;49.99
33404;BME280;19751;40.274;18.268;2023-03-16T13:02:19;100845.13;;;12.93;49.65
33404;BME280;19751;40.274;18.268;2023-03-16T13:04:55;100841.59;;;12.86;49.57
33404;BME280;19751;40.274;18.268;2023-03-16T13:07:24;100843.03;;;12.89;49.74
33404;BME280;19751;40.274;18.268;2023-03-16T13:09:58;100842.25;;;12.95;49.12
33404;BME280;19751;40.274;18.268;2023-03-16T13:12:31;100876.41;;;13.03;49.04
33404;BME280;19751;40.274;18.268;2023-03-16T13:15:01;100852.25;;;13.01;48.57
33404;BME280;19751;40.274;18.268;2023-03-16T13:17:32;100853.84;;;12.89;47.98
33404;BME280;19751;40.274;18.268;2023-03-16T13:20:02;100854.84;;;12.75;47.60
33404;BME280;19751;40.274;18.268;2023-03-16T13:22:39;100853.38;;;12.72;48.54
33404;BME280;19751;40.274;18.268;2023-03-16T13:27:57;100852.25;;;12.94;47.46
33404;BME280;19751;40.274;18.268;2023-03-16T13:30:27;100861.00;;;13.03;47.83
33404;BME280;19751;40.274;18.268;2023-03-16T13:32:56;100890.75;;;13.10;47.19
33404;BME280;19751;40.274;18.268;2023-03-16T13:35:26;100875.78;;;13.14;46.83
33404;BME280;19751;40.274;18.268;2023-03-16T13:37:52;100861.88;;;13.17;46.99
33404;BME280;19751;40.274;18.268;2023-03-16T13:40:22;100870.06;;;13.24;47.31
33404;BME280;19751;40.274;18.268;2023-03-16T13:42:49;100891.28;;;13.33;45.85
33404;BME280;19751;40.274;18.268;2023-03-16T13:45:22;100874.84;;;13.35;45.70
33404;BME280;19751;40.274;18.268;2023-03-16T13:47:49;100877.53;;;13.35;44.87
33404;BME280;19751;40.274;18.268;2023-03-16T13:50:16;100887.97;;;13.38;44.74
33404;BME280;19751;40.274;18.268;2023-03-16T13:52:48;100874.03;;;13.41;44.16
33404;BME280;19751;40.274;18.268;2023-03-16T13:55:16;100871.56;;;13.46;44.26
33404;BME280;19751;40.274;18.268;2023-03-16T13:57:43;100884.88;;;13.48;44.09
33404;BME280;19751;40.274;18.268;2023-03-16T14:00:17;100895.72;;;13.54;44.53
33404;BME280;19751;40.274;18.268;2023-03-16T14:02:46;100884.47;;;13.64;45.25